Time;durP1;ratioP1;P1;durP2;ratioP2;P2;SDS_P1;SDS_P2;PMS_P1;PMS_P2;Temp;Humidity;BMP_temperature;BMP_pressure;BME280_temperature;BME280_humidity;BME280_pressure;Samples;Min_cycle;Max_cycle;Signal;HPM_P1;HPM_P2
2023/04/18 00:01:03;;;;;;;10.82;8.43;;;7.00;99.90;;;;;;4968455;28;20555;-69
2023/04/18 00:03:28;;;;;;;13.05;8.50;;;6.90;99.90;;;;;;4964687;28;20053;-69
2023/04/18 00:05:54;;;;;;;14.52;9.98;;;6.90;99.90;;;;;;4964472;28;20038;-69
2023/04/18 00:08:20;;;;;;;13.35;8.98;;;6.80;99.90;;;;;;4980489;28;20061;-69
2023/04/18 00:10:46;;;;;;;14.75;8.68;;;6.80;99.90;;;;;;4984113;28;20142;-69
2023/04/18 00:13:12;;;;;;;11.95;8.27;;;6.80;99.90;;;;;;4964384;28;20125;-69
2023/04/18 00:15:38;;;;;;;11.68;9.32;;;6.70;99.90;;;;;;4981447;28;20042;-69
2023/04/18 00:18:04;;;;;;;9.90;8.25;;;6.70;99.90;;;;;;4966331;28;20428;-69
2023/04/18 00:20:31;;;;;;;12.43;8.80;;;6.70;99.90;;;;;;4968213;28;20066;-69
2023/04/18 00:22:59;;;;;;;11.70;8.27;;;6.80;99.90;;;;;;4967573;28;20039;-69
2023/04/18 00:25:25;;;;;;;11.55;8.52;;;6.70;99.90;;;;;;4967470;28;20051;-69
2023/04/18 00:27:51;;;;;;;9.63;7.60;;;6.70;99.90;;;;;;4962137;28;20051;-70
2023/04/18 00:30:16;;;;;;;11.90;8.50;;;6.70;99.90;;;;;;4984362;28;20068;-69
2023/04/18 00:32:42;;;;;;;11.18;8.88;;;6.70;99.90;;;;;;4968075;28;20054;-69
2023/04/18 00:35:08;;;;;;;12.40;9.45;;;6.60;99.90;;;;;;4968006;28;20114;-69
2023/04/18 00:37:34;;;;;;;10.80;7.88;;;6.70;99.90;;;;;;4967851;28;20030;-70
2023/04/18 00:39:59;;;;;;;15.88;8.75;;;6.70;99.90;;;;;;4967928;28;20497;-69
2023/04/18 00:42:26;;;;;;;10.70;8.52;;;6.70;99.90;;;;;;4965589;28;20042;-69
2023/04/18 00:44:52;;;;;;;12.18;8.73;;;6.70;99.90;;;;;;4967311;28;20050;-69
2023/04/18 00:47:18;;;;;;;10.73;8.50;;;6.70;99.90;;;;;;4987944;28;20272;-70
2023/04/18 00:49:44;;;;;;;11.57;7.72;;;6.70;99.90;;;;;;4962540;28;20039;-69
2023/04/18 00:52:11;;;;;;;11.18;8.10;;;6.70;99.90;;;;;;4973758;28;20038;-70
2023/04/18 00:54:38;;;;;;;10.65;8.35;;;6.60;99.90;;;;;;4963233;28;20046;-70
2023/04/18 00:57:04;;;;;;;12.23;8.20;;;6.60;99.90;;;;;;4972531;28;20142;-70
2023/04/18 00:59:34;;;;;;;11.82;8.23;;;6.60;99.90;;;;;;4967492;28;20054;-70
2023/04/18 01:02:00;;;;;;;12.30;8.85;;;6.60;99.90;;;;;;4968501;28;20618;-70
2023/04/18 01:04:26;;;;;;;10.43;8.32;;;6.60;99.90;;;;;;4978953;28;20123;-70
2023/04/18 01:06:52;;;;;;;15.57;9.43;;;6.60;99.90;;;;;;4969778;28;20054;-69
2023/04/18 01:09:19;;;;;;;11.20;8.27;;;6.60;99.90;;;;;;4964800;28;20047;-69
2023/04/18 01:11:45;;;;;;;13.23;9.35;;;6.60;99.90;;;;;;4986735;28;20113;-69
2023/04/18 01:14:11;;;;;;;11.27;8.57;;;6.60;99.90;;;;;;4975662;28;20549;-70
2023/04/18 01:16:37;;;;;;;12.40;9.05;;;6.60;99.90;;;;;;4983728;28;20047;-69
2023/04/18 01:19:04;;;;;;;11.60;9.20;;;6.50;99.90;;;;;;4984295;28;20120;-70
2023/04/18 01:21:32;;;;;;;12.35;8.35;;;6.50;99.90;;;;;;4964013;28;20724;-69
2023/04/18 01:24:15;;;;;;;12.20;8.85;;;6.50;99.90;;;;;;4966215;28;20120;-70
2023/04/18 01:26:42;;;;;;;12.80;8.80;;;6.50;99.90;;;;;;4965829;28;20046;-69
2023/04/18 01:29:09;;;;;;;10.20;8.43;;;6.50;99.90;;;;;;4987429;28;20077;-70
2023/04/18 01:31:35;;;;;;;13.95;8.30;;;6.40;99.90;;;;;;4968224;28;20042;-69
2023/04/18 01:34:01;;;;;;;11.85;8.88;;;6.40;99.90;;;;;;4965090;28;20043;-70
2023/04/18 01:36:27;;;;;;;12.45;8.88;;;6.40;99.90;;;;;;4967590;28;20092;-70
2023/04/18 01:38:53;;;;;;;11.68;9.15;;;6.30;99.90;;;;;;4967826;28;20066;-69
2023/04/18 01:41:18;;;;;;;12.07;8.52;;;6.30;99.90;;;;;;4964030;28;20101;-70
2023/04/18 01:43:44;;;;;;;16.05;8.85;;;6.30;99.90;;;;;;4961765;28;20078;-70
2023/04/18 01:46:10;;;;;;;13.68;9.40;;;6.30;99.90;;;;;;4956091;28;20118;-70
2023/04/18 01:48:36;;;;;;;15.23;9.25;;;6.20;99.90;;;;;;4986147;28;20034;-70
2023/04/18 01:51:02;;;;;;;10.60;8.75;;;6.20;99.90;;;;;;4981632;28;20458;-70
2023/04/18 01:53:27;;;;;;;14.55;9.15;;;6.20;99.90;;;;;;4966262;28;20041;-69
2023/04/18 01:55:53;;;;;;;10.88;8.68;;;6.20;99.90;;;;;;4982716;28;20121;-70
2023/04/18 01:58:22;;;;;;;10.93;8.50;;;6.20;99.90;;;;;;4988154;28;20038;-70
2023/04/18 02:00:50;;;;;;;11.43;9.52;;;6.20;99.90;;;;;;4961217;28;20042;-70
2023/04/18 02:03:16;;;;;;;11.00;9.23;;;6.20;99.90;;;;;;4983771;28;20378;-70
2023/04/18 02:05:42;;;;;;;10.30;8.82;;;6.20;99.90;;;;;;4966785;28;20043;-70
2023/04/18 02:08:07;;;;;;;12.20;9.27;;;6.20;99.90;;;;;;4967652;28;20056;-70
2023/04/18 02:10:33;;;;;;;12.73;9.65;;;6.20;99.90;;;;;;4961938;28;20039;-69
2023/04/18 02:12:59;;;;;;;15.57;10.40;;;6.10;99.90;;;;;;4978205;28;20046;-69
2023/04/18 02:15:24;;;;;;;11.45;9.40;;;6.20;99.90;;;;;;4965926;28;20468;-69
2023/04/18 02:17:50;;;;;;;12.90;9.27;;;6.20;99.90;;;;;;4968351;28;20057;-69
2023/04/18 02:20:16;;;;;;;11.68;9.07;;;6.20;99.90;;;;;;4981835;28;20062;-69
2023/04/18 02:22:42;;;;;;;11.35;9.15;;;6.20;99.90;;;;;;4973188;28;20040;-69
2023/04/18 02:25:09;;;;;;;11.80;9.32;;;6.20;99.90;;;;;;4954513;28;20201;-70
2023/04/18 02:27:35;;;;;;;14.63;9.70;;;6.20;99.90;;;;;;4968897;28;20050;-70
2023/04/18 02:30:01;;;;;;;15.95;10.40;;;6.20;99.90;;;;;;4959436;28;20347;-70
2023/04/18 02:32:26;;;;;;;13.50;10.27;;;6.30;99.90;;;;;;4985444;28;20030;-70
2023/04/18 02:34:52;;;;;;;13.70;10.02;;;6.30;99.90;;;;;;4984317;28;20506;-70
2023/04/18 02:37:18;;;;;;;12.95;10.32;;;6.30;99.90;;;;;;4970525;28;20522;-70
2023/04/18 02:39:43;;;;;;;12.90;9.75;;;6.30;99.90;;;;;;4967500;28;20034;-70
2023/04/18 02:42:09;;;;;;;15.32;10.13;;;6.30;99.90;;;;;;4984455;28;20974;-70
2023/04/18 02:44:35;;;;;;;15.25;10.18;;;6.30;99.90;;;;;;4966991;28;20562;-70
2023/04/18 02:47:00;;;;;;;14.07;10.77;;;6.30;99.90;;;;;;4965535;28;20147;-70
2023/04/18 02:49:26;;;;;;;15.32;11.07;;;6.40;99.90;;;;;;4979613;28;20038;-70
2023/04/18 02:51:56;;;;;;;13.55;10.35;;;6.40;99.90;;;;;;4972249;28;20140;-70
2023/04/18 02:54:22;;;;;;;13.55;11.20;;;6.40;99.90;;;;;;4967152;28;20046;-70
2023/04/18 02:56:47;;;;;;;12.80;10.45;;;6.40;99.90;;;;;;4970647;28;20046;-70
2023/04/18 02:59:13;;;;;;;14.63;11.10;;;6.50;99.90;;;;;;4980106;28;20415;-70
2023/04/18 03:01:39;;;;;;;12.65;10.52;;;6.40;99.90;;;;;;4966191;28;20042;-70
2023/04/18 03:04:04;;;;;;;14.68;10.65;;;6.40;99.90;;;;;;4963622;28;20524;-70
2023/04/18 03:06:30;;;;;;;12.52;9.90;;;6.40;99.90;;;;;;4963689;28;20030;-70
2023/04/18 03:08:56;;;;;;;13.00;10.65;;;6.40;99.90;;;;;;4961851;28;20077;-70
2023/04/18 03:11:22;;;;;;;16.00;11.05;;;6.40;99.90;;;;;;4967979;28;20046;-70
2023/04/18 03:13:47;;;;;;;13.82;10.55;;;6.40;99.90;;;;;;4967033;28;20410;-70
2023/04/18 03:16:13;;;;;;;15.82;11.50;;;6.50;99.90;;;;;;4986487;28;20069;-70
2023/04/18 03:18:39;;;;;;;12.55;10.27;;;6.50;99.90;;;;;;4957369;28;20054;-70
2023/04/18 03:21:06;;;;;;;11.63;9.80;;;6.50;99.90;;;;;;4970759;28;20120;-70
2023/04/18 03:23:31;;;;;;;13.05;10.70;;;6.40;99.90;;;;;;4965415;28;20034;-70
2023/04/18 03:25:57;;;;;;;14.27;10.98;;;6.40;99.90;;;;;;4965143;28;20639;-70
2023/04/18 03:28:23;;;;;;;15.35;10.73;;;6.40;99.90;;;;;;4961697;28;20054;-70
2023/04/18 03:30:49;;;;;;;13.23;10.65;;;6.40;99.90;;;;;;4966157;28;20092;-70
2023/04/18 03:33:15;;;;;;;13.90;10.98;;;6.40;99.90;;;;;;4961662;28;20049;-70
2023/04/18 03:35:41;;;;;;;12.82;10.75;;;6.40;99.90;;;;;;4982429;28;20051;-70
2023/04/18 03:38:07;;;;;;;13.43;10.98;;;6.40;99.90;;;;;;4964333;28;20336;-70
2023/04/18 03:40:33;;;;;;;12.77;10.05;;;6.40;99.90;;;;;;4966459;28;20058;-70
2023/04/18 03:42:59;;;;;;;13.45;10.50;;;6.30;99.90;;;;;;4963888;28;20092;-70
2023/04/18 03:45:24;;;;;;;12.35;9.32;;;6.30;99.90;;;;;;4962590;28;20126;-71
2023/04/18 03:47:50;;;;;;;13.75;10.30;;;6.30;99.90;;;;;;4981719;28;20101;-70
2023/04/18 03:50:16;;;;;;;14.15;11.13;;;6.30;99.90;;;;;;4965246;28;20125;-70
2023/04/18 03:52:42;;;;;;;14.23;10.57;;;6.30;99.90;;;;;;4967621;28;20097;-70
2023/04/18 03:55:07;;;;;;;13.95;9.73;;;6.30;99.90;;;;;;4964716;28;20414;-70
2023/04/18 03:57:33;;;;;;;12.23;9.73;;;6.30;99.90;;;;;;4952299;28;20050;-70
2023/04/18 03:59:59;;;;;;;13.65;10.23;;;6.30;99.90;;;;;;4967704;28;20505;-71
2023/04/18 04:02:25;;;;;;;15.27;11.02;;;6.40;99.90;;;;;;4972313;28;20132;-71
2023/04/18 04:04:51;;;;;;;13.63;9.93;;;6.40;99.90;;;;;;4964654;28;20141;-70
2023/04/18 04:07:17;;;;;;;12.60;10.35;;;6.40;99.90;;;;;;4967266;28;20113;-70
2023/04/18 04:09:42;;;;;;;12.15;9.80;;;6.40;99.90;;;;;;4989421;28;20443;-70
2023/04/18 04:12:08;;;;;;;15.45;11.00;;;6.50;99.90;;;;;;4971325;28;20043;-70
2023/04/18 04:14:34;;;;;;;14.38;10.65;;;6.50;99.90;;;;;;4969580;28;20046;-71
2023/04/18 04:17:00;;;;;;;11.70;9.63;;;6.50;99.90;;;;;;4988666;28;20050;-70
2023/04/18 04:19:25;;;;;;;12.70;10.07;;;6.50;99.90;;;;;;4970509;28;20058;-70
2023/04/18 04:21:51;;;;;;;13.10;9.75;;;6.50;99.90;;;;;;4969141;28;20137;-70
2023/04/18 04:24:17;;;;;;;12.30;10.35;;;6.50;99.90;;;;;;4965998;28;20391;-71
2023/04/18 04:26:43;;;;;;;12.05;9.85;;;6.50;99.90;;;;;;4972869;28;20121;-71
2023/04/18 04:29:12;;;;;;;14.57;10.27;;;6.50;99.90;;;;;;4972453;28;20608;-71
2023/04/18 04:31:38;;;;;;;13.43;10.63;;;6.50;99.90;;;;;;4969381;28;20337;-71
2023/04/18 04:34:04;;;;;;;14.07;11.10;;;6.50;99.90;;;;;;4968790;28;20070;-71
2023/04/18 04:36:29;;;;;;;14.85;11.18;;;6.50;99.90;;;;;;4988186;28;20112;-71
2023/04/18 04:38:55;;;;;;;15.48;10.88;;;6.50;99.90;;;;;;4971363;28;20042;-71
2023/04/18 04:41:21;;;;;;;14.25;10.43;;;6.60;99.90;;;;;;4966913;28;20046;-71
2023/04/18 04:43:47;;;;;;;13.20;10.73;;;6.60;99.90;;;;;;4986182;28;20801;-71
2023/04/18 04:46:13;;;;;;;13.32;10.82;;;6.60;99.90;;;;;;4986382;28;20089;-71
2023/04/18 04:48:39;;;;;;;13.98;10.70;;;6.60;99.90;;;;;;4968539;28;20161;-72
2023/04/18 04:51:05;;;;;;;13.35;11.65;;;6.60;99.90;;;;;;4982691;28;20034;-71
2023/04/18 04:53:31;;;;;;;13.85;10.20;;;6.60;99.90;;;;;;4965684;28;20054;-71
2023/04/18 04:55:57;;;;;;;15.20;11.18;;;6.70;99.90;;;;;;4984063;28;20042;-71
2023/04/18 04:58:23;;;;;;;14.85;10.50;;;6.70;99.90;;;;;;4967566;28;20135;-71
2023/04/18 05:00:51;;;;;;;15.38;11.02;;;6.70;99.90;;;;;;4966257;28;20475;-72
2023/04/18 05:03:17;;;;;;;16.20;12.00;;;6.70;99.90;;;;;;4973231;28;20050;-71
2023/04/18 05:05:44;;;;;;;13.45;10.88;;;6.80;99.90;;;;;;4970884;28;20080;-71
2023/04/18 05:08:09;;;;;;;15.77;11.35;;;6.80;99.90;;;;;;4965650;28;20047;-71
2023/04/18 05:10:35;;;;;;;15.68;10.95;;;6.80;99.90;;;;;;4958998;28;20045;-71
2023/04/18 05:13:02;;;;;;;13.40;10.18;;;6.80;99.90;;;;;;4981730;28;20069;-71
2023/04/18 05:15:28;;;;;;;14.20;11.00;;;6.90;99.90;;;;;;4969973;28;20054;-71
2023/04/18 05:17:54;;;;;;;14.32;10.52;;;6.90;99.90;;;;;;4970624;28;20042;-71
2023/04/18 05:20:20;;;;;;;12.25;10.27;;;6.90;99.90;;;;;;4987662;28;20160;-71
2023/04/18 05:22:46;;;;;;;12.68;10.50;;;6.90;99.90;;;;;;4990156;28;20108;-71
2023/04/18 05:25:11;;;;;;;15.13;11.50;;;6.80;99.90;;;;;;4968939;28;20038;-71
2023/04/18 05:27:37;;;;;;;11.93;10.25;;;6.90;99.90;;;;;;4970993;28;20077;-71
2023/04/18 05:30:03;;;;;;;15.02;10.20;;;6.90;99.90;;;;;;4966553;28;20474;-71
2023/04/18 05:32:29;;;;;;;13.73;10.15;;;6.90;99.90;;;;;;4985946;28;20038;-71
2023/04/18 05:34:55;;;;;;;17.33;11.07;;;6.90;99.90;;;;;;4969069;28;20731;-70
2023/04/18 05:37:21;;;;;;;14.52;10.50;;;6.90;99.90;;;;;;4965626;28;20108;-70
2023/04/18 05:39:47;;;;;;;13.07;10.32;;;6.90;99.90;;;;;;4984530;28;20054;-70
2023/04/18 05:42:13;;;;;;;13.57;10.80;;;6.90;99.90;;;;;;4982463;28;20478;-70
2023/04/18 05:44:38;;;;;;;13.98;10.73;;;6.90;99.90;;;;;;4971751;28;20410;-70
2023/04/18 05:47:04;;;;;;;13.48;10.57;;;6.90;99.90;;;;;;4971090;28;20034;-70
2023/04/18 05:49:31;;;;;;;11.93;10.20;;;7.00;99.90;;;;;;4967735;28;20120;-70
2023/04/18 05:51:57;;;;;;;12.55;10.10;;;7.00;99.90;;;;;;4971717;28;20046;-70
2023/04/18 05:54:26;;;;;;;13.95;9.55;;;7.00;99.90;;;;;;4965918;28;20057;-70
2023/04/18 05:56:53;;;;;;;12.60;10.02;;;7.00;99.90;;;;;;4972317;28;20050;-70
2023/04/18 05:59:22;;;;;;;13.73;10.32;;;7.00;99.90;;;;;;4964274;28;20063;-71
2023/04/18 06:01:50;;;;;;;12.07;10.55;;;7.00;99.90;;;;;;4972889;28;20180;-71
2023/04/18 06:04:17;;;;;;;13.55;10.43;;;7.10;99.90;;;;;;4962900;28;20039;-71
2023/04/18 06:06:43;;;;;;;15.57;10.77;;;7.00;99.90;;;;;;4984600;28;20097;-71
2023/04/18 06:09:08;;;;;;;11.68;10.20;;;7.10;99.90;;;;;;4957253;28;21067;-71
2023/04/18 06:11:34;;;;;;;12.90;10.40;;;7.10;99.90;;;;;;4965162;28;20035;-71
2023/04/18 06:14:01;;;;;;;12.63;10.93;;;7.20;99.90;;;;;;4956717;28;20122;-71
2023/04/18 06:16:26;;;;;;;13.05;10.65;;;7.20;99.90;;;;;;4969651;28;20045;-71
2023/04/18 06:18:53;;;;;;;16.90;11.68;;;7.20;99.90;;;;;;4973390;28;20042;-71
2023/04/18 06:21:20;;;;;;;13.65;10.85;;;7.20;99.90;;;;;;4982369;28;20416;-71
2023/04/18 06:23:45;;;;;;;14.38;11.15;;;7.30;99.90;;;;;;4984783;28;20045;-71
2023/04/18 06:26:11;;;;;;;16.25;11.80;;;7.30;99.90;;;;;;4964331;28;20461;-71
2023/04/18 06:28:37;;;;;;;13.00;11.00;;;7.30;99.90;;;;;;4961028;28;20054;-71
2023/04/18 06:31:03;;;;;;;13.05;10.23;;;7.40;99.90;;;;;;4965134;28;20509;-71
2023/04/18 06:33:28;;;;;;;14.15;10.52;;;7.50;99.90;;;;;;4968822;28;20042;-71
2023/04/18 06:35:54;;;;;;;14.70;11.02;;;7.50;99.90;;;;;;4979068;28;20045;-71
2023/04/18 06:38:20;;;;;;;15.13;10.48;;;7.50;99.90;;;;;;4963345;28;20108;-71
2023/04/18 06:40:46;;;;;;;13.13;10.57;;;7.50;99.90;;;;;;4965902;28;20470;-71
2023/04/18 06:43:11;;;;;;;13.45;9.57;;;7.60;99.90;;;;;;4964949;28;20037;-71
2023/04/18 06:45:37;;;;;;;13.73;9.65;;;7.60;99.90;;;;;;4963992;28;20082;-71
2023/04/18 06:48:03;;;;;;;14.98;10.75;;;7.60;99.90;;;;;;4983452;28;20066;-71
2023/04/18 06:50:29;;;;;;;12.57;10.07;;;7.70;99.90;;;;;;4964778;28;20470;-71
2023/04/18 06:52:55;;;;;;;12.32;10.57;;;7.70;99.90;;;;;;4968484;28;20081;-71
2023/04/18 06:55:21;;;;;;;11.07;8.35;;;7.80;99.90;;;;;;4964098;28;20125;-71
2023/04/18 06:57:47;;;;;;;10.30;9.20;;;7.90;99.90;;;;;;4968645;28;20502;-72
2023/04/18 07:00:13;;;;;;;12.05;9.63;;;7.90;99.90;;;;;;4972657;28;20454;-71
2023/04/18 07:02:40;;;;;;;13.52;9.35;;;8.00;99.90;;;;;;4966957;28;20102;-71
2023/04/18 07:05:06;;;;;;;13.90;10.25;;;8.10;99.90;;;;;;4988149;28;20042;-71
2023/04/18 07:07:33;;;;;;;10.43;9.10;;;8.20;99.90;;;;;;4964347;28;20053;-71
2023/04/18 07:10:03;;;;;;;11.20;9.05;;;8.20;99.90;;;;;;4973555;28;20045;-72
2023/04/18 07:12:28;;;;;;;12.38;9.85;;;8.30;99.90;;;;;;4982195;28;20129;-71
2023/04/18 07:14:54;;;;;;;9.10;8.07;;;8.50;99.90;;;;;;4989231;28;20440;-71
2023/04/18 07:17:20;;;;;;;10.07;7.85;;;8.70;99.90;;;;;;4980009;28;20050;-71
2023/04/18 07:19:45;;;;;;;8.90;7.95;;;8.70;99.90;;;;;;4971726;28;20076;-71
2023/04/18 07:22:11;;;;;;;11.02;8.77;;;8.90;99.90;;;;;;4963503;28;20092;-71
2023/04/18 07:24:38;;;;;;;10.65;7.72;;;8.90;99.90;;;;;;4965901;28;20130;-71
2023/04/18 07:27:05;;;;;;;9.55;7.90;;;9.00;99.90;;;;;;4980955;28;20042;-72
2023/04/18 07:29:31;;;;;;;9.63;7.70;;;9.00;99.90;;;;;;4969275;28;20062;-72
2023/04/18 07:31:58;;;;;;;10.85;7.72;;;9.20;99.90;;;;;;4966631;28;20042;-72
2023/04/18 07:34:25;;;;;;;7.40;6.50;;;9.50;99.90;;;;;;4966168;28;20409;-72
2023/04/18 07:36:52;;;;;;;7.88;7.07;;;9.60;99.90;;;;;;4973200;28;20046;-71
2023/04/18 07:39:17;;;;;;;9.85;6.72;;;9.60;99.90;;;;;;4968530;28;20038;-71
2023/04/18 07:41:43;;;;;;;8.40;7.00;;;9.70;99.90;;;;;;4971204;28;20046;-72
2023/04/18 07:44:09;;;;;;;8.10;6.80;;;9.80;99.90;;;;;;4948684;28;20039;-72
2023/04/18 07:46:35;;;;;;;6.82;5.93;;;10.40;99.90;;;;;;4972458;28;20482;-71
2023/04/18 07:49:01;;;;;;;8.52;6.55;;;11.20;99.90;;;;;;4973813;28;20042;-71
2023/04/18 07:51:30;;;;;;;8.18;6.65;;;11.70;99.90;;;;;;4977007;28;20455;-71
2023/04/18 07:53:57;;;;;;;7.82;6.22;;;11.90;99.90;;;;;;4974389;28;20042;-71
2023/04/18 07:56:23;;;;;;;10.27;6.40;;;12.10;99.90;;;;;;4973096;28;20081;-71
2023/04/18 07:58:49;;;;;;;6.97;6.28;;;12.40;99.90;;;;;;4991467;28;20143;-73
2023/04/18 08:01:17;;;;;;;8.80;6.22;;;12.60;99.90;;;;;;4958030;28;20120;-72
2023/04/18 08:03:43;;;;;;;7.57;6.43;;;12.60;99.90;;;;;;4983076;28;20487;-73
2023/04/18 08:06:09;;;;;;;8.65;7.35;;;12.60;99.90;;;;;;4969547;28;20402;-73
2023/04/18 08:08:35;;;;;;;7.30;6.50;;;12.80;99.90;;;;;;4971727;28;20093;-73
2023/04/18 08:11:01;;;;;;;8.40;6.75;;;13.00;99.90;;;;;;4973063;28;20362;-72
2023/04/18 08:13:27;;;;;;;7.57;6.47;;;13.00;99.90;;;;;;4985605;28;20125;-74
2023/04/18 08:15:54;;;;;;;8.20;7.07;;;13.30;99.90;;;;;;4966702;28;20125;-72
2023/04/18 08:18:21;;;;;;;7.70;6.85;;;13.60;99.90;;;;;;4957193;28;20038;-72
2023/04/18 08:20:47;;;;;;;8.75;7.70;;;13.40;99.90;;;;;;4968759;28;20062;-72
2023/04/18 08:23:13;;;;;;;7.75;6.78;;;13.80;99.90;;;;;;4978656;28;20101;-73
2023/04/18 08:25:39;;;;;;;8.20;7.30;;;14.20;99.90;;;;;;4969221;28;20054;-73
2023/04/18 08:28:05;;;;;;;8.48;7.22;;;13.80;99.90;;;;;;4969128;28;20064;-72
2023/04/18 08:30:31;;;;;;;9.20;7.47;;;13.10;99.90;;;;;;4972900;28;20120;-72
2023/04/18 08:33:00;;;;;;;10.10;7.78;;;12.80;99.90;;;;;;4961567;28;20566;-72
2023/04/18 08:35:26;;;;;;;9.32;7.97;;;12.30;99.90;;;;;;4987201;28;20039;-72
2023/04/18 08:37:52;;;;;;;9.57;7.53;;;11.70;99.90;;;;;;4986335;28;20038;-72
2023/04/18 08:40:18;;;;;;;9.65;7.40;;;11.40;99.90;;;;;;4962729;28;20125;-72
2023/04/18 08:42:44;;;;;;;8.65;7.65;;;11.20;99.90;;;;;;4967564;28;20041;-72
2023/04/18 08:45:13;;;;;;;9.35;8.38;;;11.10;99.90;;;;;;4969608;28;20527;-72
2023/04/18 08:47:39;;;;;;;9.85;8.80;;;10.90;99.90;;;;;;4971909;28;20035;-72
2023/04/18 08:50:06;;;;;;;9.88;8.68;;;10.60;99.90;;;;;;4969997;28;20039;-72
2023/04/18 08:52:34;;;;;;;9.75;8.75;;;10.50;99.90;;;;;;4970729;28;20034;-72
2023/04/18 08:55:01;;;;;;;9.57;8.57;;;10.50;99.90;;;;;;4987559;28;21449;-72
2023/04/18 08:57:28;;;;;;;10.30;8.60;;;10.50;99.90;;;;;;4972256;28;20052;-72
2023/04/18 08:59:55;;;;;;;11.70;8.52;;;10.30;99.90;;;;;;4964716;28;20114;-73
2023/04/18 09:02:22;;;;;;;11.07;8.50;;;10.30;99.90;;;;;;4964543;28;20125;-72
2023/04/18 09:04:51;;;;;;;10.68;8.18;;;10.30;99.90;;;;;;4969664;28;20047;-72
2023/04/18 09:07:27;;;;;;;8.82;7.78;;;10.40;99.90;;;;;;4954332;28;20042;-71
2023/04/18 09:09:56;;;;;;;14.50;8.63;;;10.50;99.90;;;;;;4968181;28;20391;-71
2023/04/18 09:12:26;;;;;;;8.20;7.40;;;10.60;99.90;;;;;;4968566;28;20458;-72
2023/04/18 09:15:08;;;;;;;9.65;8.48;;;10.80;99.90;;;;;;4973990;28;20067;-71
2023/04/18 09:17:42;;;;;;;9.30;8.30;;;10.90;99.90;;;;;;4974084;28;20125;-71
2023/04/18 09:20:09;;;;;;;11.18;8.93;;;11.00;99.90;;;;;;4966485;28;20411;-71
2023/04/18 09:23:09;;;;;;;10.13;7.95;;;11.00;99.90;;;;;;4971570;28;20056;-70
2023/04/18 09:25:41;;;;;;;10.00;8.98;;;11.10;99.90;;;;;;4968495;28;20050;-71
2023/04/18 09:28:31;;;;;;;8.82;7.80;;;11.20;99.90;;;;;;4972115;28;20054;-72
2023/04/18 09:31:10;;;;;;;10.30;7.72;;;11.30;99.90;;;;;;4971076;28;20073;-71
2023/04/18 09:33:38;;;;;;;9.95;7.47;;;11.50;99.90;;;;;;4970026;28;20050;-71
2023/04/18 09:36:22;;;;;;;10.30;7.68;;;12.00;99.90;;;;;;4971692;28;20096;-72
2023/04/18 09:38:49;;;;;;;9.35;8.07;;;12.40;99.90;;;;;;4970896;28;20512;-71
2023/04/18 09:41:16;;;;;;;9.82;8.05;;;12.70;99.90;;;;;;4971684;28;20081;-72
2023/04/18 09:43:42;;;;;;;8.95;7.05;;;12.70;99.90;;;;;;4985571;28;20086;-72
2023/04/18 09:46:08;;;;;;;8.85;7.15;;;12.60;99.90;;;;;;4966068;28;20055;-71
2023/04/18 09:48:35;;;;;;;10.15;7.40;;;13.00;99.90;;;;;;4986907;28;20125;-73
2023/04/18 09:51:05;;;;;;;11.75;7.50;;;13.50;99.90;;;;;;4963583;28;20042;-72
2023/04/18 09:53:34;;;;;;;8.32;7.10;;;13.20;99.90;;;;;;4965651;28;20560;-72
2023/04/18 09:56:00;;;;;;;8.75;6.93;;;13.00;99.90;;;;;;4970703;28;20043;-73
2023/04/18 09:58:31;;;;;;;10.05;8.13;;;13.00;99.90;;;;;;4968648;28;20125;-73
2023/04/18 10:00:57;;;;;;;8.60;7.60;;;13.00;99.90;;;;;;4965205;28;20039;-74
2023/04/18 10:03:28;;;;;;;11.00;7.70;;;12.80;99.90;;;;;;4969000;28;20056;-72
2023/04/18 10:05:55;;;;;;;8.60;7.22;;;13.00;99.90;;;;;;4971653;28;20042;-73
2023/04/18 10:08:21;;;;;;;9.02;8.05;;;13.30;99.90;;;;;;4961982;28;20068;-73
2023/04/18 10:10:46;;;;;;;8.13;7.32;;;13.90;99.90;;;;;;4970802;28;20035;-73
2023/04/18 10:13:13;;;;;;;9.00;7.65;;;14.40;99.90;;;;;;4968318;28;20066;-73
2023/04/18 10:15:39;;;;;;;8.70;7.80;;;14.70;99.90;;;;;;4967847;28;20031;-73
2023/04/18 10:18:12;;;;;;;9.05;8.15;;;14.90;99.90;;;;;;4963611;28;20514;-73
2023/04/18 10:20:40;;;;;;;9.68;8.52;;;14.80;99.90;;;;;;4974600;28;20134;-73
2023/04/18 10:23:33;;;;;;;8.23;7.43;;;14.90;99.90;;;;;;4973694;28;20512;-73
2023/04/18 10:26:00;;;;;;;9.40;8.13;;;15.40;99.90;;;;;;4964395;28;20042;-72
2023/04/18 10:28:27;;;;;;;9.13;8.00;;;15.40;99.90;;;;;;4962944;28;20101;-72
2023/04/18 10:30:54;;;;;;;8.60;7.70;;;15.40;99.90;;;;;;4969999;28;20125;-73
2023/04/18 10:33:32;;;;;;;7.93;7.22;;;15.50;99.90;;;;;;4957763;28;20030;-73
2023/04/18 10:35:57;;;;;;;7.20;6.53;;;15.80;99.90;;;;;;4965580;28;20042;-73
2023/04/18 10:38:23;;;;;;;9.50;6.15;;;16.10;99.90;;;;;;4965998;28;20050;-72
2023/04/18 10:40:49;;;;;;;10.25;6.95;;;16.20;98.80;;;;;;4972920;28;20377;-72
2023/04/18 10:43:15;;;;;;;7.03;6.32;;;16.10;98.20;;;;;;4969020;28;20043;-72
2023/04/18 10:45:41;;;;;;;8.30;7.57;;;15.90;96.80;;;;;;4977439;28;20043;-73
2023/04/18 10:48:29;;;;;;;8.35;7.50;;;15.20;96.80;;;;;;4973058;28;20495;-71
2023/04/18 10:51:18;;;;;;;8.00;6.93;;;15.30;99.10;;;;;;4970146;28;20030;-72
2023/04/18 10:53:58;;;;;;;7.90;6.25;;;15.40;98.30;;;;;;4963632;28;20074;-74
2023/04/18 10:56:26;;;;;;;7.45;6.70;;;15.70;96.60;;;;;;4971163;28;20042;-73
2023/04/18 10:58:53;;;;;;;6.90;6.20;;;15.70;96.80;;;;;;4972884;28;20124;-74
2023/04/18 11:01:29;;;;;;;7.38;6.60;;;15.60;96.40;;;;;;4967201;28;20046;-74
2023/04/18 11:03:55;;;;;;;8.35;6.72;;;15.90;96.90;;;;;;4959531;28;20034;-74
2023/04/18 11:06:22;;;;;;;7.05;6.20;;;16.10;96.70;;;;;;4955533;28;20117;-73
2023/04/18 11:08:49;;;;;;;6.82;5.82;;;16.00;95.60;;;;;;4966516;28;20058;-74
2023/04/18 11:11:15;;;;;;;7.20;5.40;;;16.20;95.70;;;;;;4982863;28;20041;-74
2023/04/18 11:13:57;;;;;;;6.28;5.25;;;16.30;95.60;;;;;;4967707;28;20494;-74
2023/04/18 11:16:27;;;;;;;6.38;5.38;;;16.50;94.50;;;;;;4964958;28;20046;-73
2023/04/18 11:18:54;;;;;;;7.13;5.20;;;16.70;92.60;;;;;;4967224;28;20042;-74
2023/04/18 11:21:19;;;;;;;5.45;4.95;;;16.70;93.20;;;;;;4982575;28;20059;-74
2023/04/18 11:23:46;;;;;;;5.50;4.97;;;16.90;93.80;;;;;;4959705;28;20181;-74
2023/04/18 11:26:16;;;;;;;5.68;4.97;;;17.10;93.60;;;;;;4963511;28;20051;-73
2023/04/18 11:28:42;;;;;;;5.53;4.60;;;16.80;92.10;;;;;;4970164;28;20470;-74
2023/04/18 11:31:08;;;;;;;5.30;4.80;;;17.00;93.00;;;;;;4989193;28;20048;-73
2023/04/18 11:33:34;;;;;;;5.90;5.30;;;16.80;90.90;;;;;;4965755;28;20538;-74
2023/04/18 11:36:00;;;;;;;6.45;5.00;;;16.50;91.40;;;;;;4969473;28;20046;-73
2023/04/18 11:38:29;;;;;;;7.68;5.80;;;16.00;91.70;;;;;;4952940;28;20073;-74
2023/04/18 11:40:55;;;;;;;5.25;4.75;;;16.10;91.50;;;;;;4980137;28;20042;-75
2023/04/18 11:43:23;;;;;;;7.57;5.55;;;16.20;92.60;;;;;;4965974;28;20471;-75
2023/04/18 11:45:59;;;;;;;10.05;5.97;;;16.30;91.60;;;;;;4965927;28;20055;-74
2023/04/18 11:48:36;;;;;;;7.50;5.57;;;16.70;91.20;;;;;;4969159;28;20043;-74
2023/04/18 11:51:02;;;;;;;6.60;6.00;;;17.10;90.90;;;;;;4960486;28;20046;-75
2023/04/18 11:53:35;;;;;;;7.10;5.90;;;17.10;90.60;;;;;;4966225;28;20030;-73
2023/04/18 11:56:02;;;;;;;7.77;5.80;;;17.50;88.80;;;;;;4967331;28;20499;-74
2023/04/18 11:58:35;;;;;;;6.70;6.10;;;17.40;89.50;;;;;;4966409;28;20057;-74
2023/04/18 12:01:21;;;;;;;8.18;6.28;;;17.40;88.20;;;;;;4969585;28;20122;-74
2023/04/18 12:04:07;;;;;;;9.63;6.90;;;17.20;89.50;;;;;;4967860;28;20049;-74
2023/04/18 12:06:49;;;;;;;7.07;6.13;;;16.50;88.70;;;;;;4982699;28;20046;-75
2023/04/18 12:09:20;;;;;;;9.00;6.78;;;16.20;90.00;;;;;;4970439;28;20125;-73
2023/04/18 12:12:02;;;;;;;7.80;6.40;;;16.40;90.50;;;;;;4969132;28;20041;-72
2023/04/18 12:14:29;;;;;;;8.25;6.38;;;17.00;90.30;;;;;;4967172;28;20049;-71
2023/04/18 12:16:55;;;;;;;8.00;7.15;;;17.30;89.20;;;;;;4995794;28;20050;-73
2023/04/18 12:19:28;;;;;;;10.30;9.23;;;17.70;87.50;;;;;;4984110;28;20046;-75
2023/04/18 12:22:05;;;;;;;9.18;6.97;;;17.90;86.60;;;;;;4969976;28;20050;-75
2023/04/18 12:24:31;;;;;;;8.15;7.38;;;18.00;85.10;;;;;;4973923;28;20049;-75
2023/04/18 12:27:00;;;;;;;8.52;7.32;;;18.00;85.60;;;;;;4974605;28;20489;-75
2023/04/18 12:29:27;;;;;;;8.35;7.03;;;18.00;84.20;;;;;;4974589;28;20043;-75
2023/04/18 12:31:53;;;;;;;11.02;7.40;;;18.00;85.90;;;;;;4977910;28;20029;-74
2023/04/18 12:34:19;;;;;;;8.20;7.22;;;18.20;84.00;;;;;;4973313;28;20072;-75
2023/04/18 12:36:45;;;;;;;9.45;7.45;;;17.90;81.30;;;;;;4956192;28;20103;-78
2023/04/18 12:39:11;;;;;;;8.98;7.78;;;17.70;81.90;;;;;;4969487;28;20074;-78
2023/04/18 12:41:37;;;;;;;12.05;8.50;;;17.70;82.60;;;;;;4972238;28;20069;-75
2023/04/18 12:44:03;;;;;;;9.70;8.10;;;18.10;82.30;;;;;;4980122;28;20049;-71